createdAt,value
2018-09-22T00:01:40.308Z,100942.70
2018-09-22T00:04:09.427Z,100942.51
2018-09-22T00:06:38.603Z,100941.91
2018-09-22T00:09:09.262Z,100950.44
2018-09-22T00:11:38.443Z,100953.73
2018-09-22T00:14:07.731Z,100959.58
2018-09-22T00:16:37.287Z,100955.72
2018-09-22T00:19:06.683Z,100955.41
2018-09-22T00:21:35.850Z,100956.38
2018-09-22T00:24:05.180Z,100955.27
2018-09-22T00:26:34.376Z,100957.80
2018-09-22T00:29:03.541Z,100959.14
2018-09-22T00:31:32.696Z,100958.84
2018-09-22T00:34:01.884Z,100963.41
2018-09-22T00:36:31.081Z,100962.57
2018-09-22T00:39:00.236Z,100963.03
2018-09-22T00:41:29.407Z,100966.60
2018-09-22T00:43:58.876Z,100973.19
2018-09-22T00:46:28.028Z,100976.39
2018-09-22T00:48:57.200Z,100981.09
2018-09-22T00:51:26.408Z,100978.41
2018-09-22T00:53:55.560Z,100982.44
2018-09-22T00:56:24.727Z,100987.52
2018-09-22T00:58:53.888Z,100989.91
2018-09-22T01:01:23.141Z,100992.83
2018-09-22T01:03:52.341Z,100996.63
2018-09-22T01:06:21.472Z,101008.42
2018-09-22T01:08:50.603Z,101007.08
2018-09-22T01:11:19.997Z,101003.89
2018-09-22T01:13:49.357Z,101007.45
2018-09-22T01:16:18.581Z,101010.52
2018-09-22T01:18:47.731Z,101010.13
2018-09-22T01:21:16.884Z,101023.41
2018-09-22T01:23:46.013Z,101024.97
2018-09-22T01:26:15.175Z,101027.80
2018-09-22T01:28:44.322Z,101038.13
2018-09-22T01:31:13.487Z,101037.19
2018-09-22T01:33:42.936Z,101041.83
2018-09-22T01:36:12.177Z,101039.74
2018-09-22T01:38:41.317Z,101052.42
2018-09-22T01:41:10.483Z,101052.73
2018-09-22T01:43:39.669Z,101041.02
2018-09-22T01:46:08.893Z,101057.83
2018-09-22T01:48:38.084Z,101067.50
2018-09-22T01:51:07.204Z,101073.55
2018-09-22T01:53:36.364Z,101069.98
2018-09-22T01:56:05.516Z,101073.10
2018-09-22T01:58:34.678Z,101079.98
2018-09-22T02:01:03.862Z,101081.94
2018-09-22T02:03:33.043Z,101093.66
2018-09-22T02:06:02.239Z,101100.23
2018-09-22T02:08:31.708Z,101094.36
2018-09-22T02:11:00.890Z,101101.00
2018-09-22T02:13:30.055Z,101106.31
2018-09-22T02:15:59.234Z,101112.66
2018-09-22T02:18:28.432Z,101116.30
2018-09-22T02:20:57.628Z,101120.79
2018-09-22T02:23:26.881Z,101120.30
2018-09-22T02:25:56.040Z,101130.75
2018-09-22T02:28:25.198Z,101132.09
2018-09-22T02:30:54.329Z,101135.89
2018-09-22T02:33:23.480Z,101150.33
2018-09-22T02:35:52.672Z,101146.41
2018-09-22T02:38:21.886Z,101154.20
2018-09-22T02:40:51.108Z,101154.93
2018-09-22T02:43:20.252Z,101150.59
2018-09-22T02:45:49.515Z,101159.61
2018-09-22T02:48:18.719Z,101159.11
2018-09-22T02:50:47.926Z,101171.84
2018-09-22T02:53:17.132Z,101172.38
2018-09-22T02:55:46.325Z,101177.76
2018-09-22T02:58:15.658Z,101179.41
2018-09-22T03:00:44.789Z,101180.89
2018-09-22T03:03:13.924Z,101187.39
2018-09-22T03:05:43.142Z,101184.09
2018-09-22T03:08:12.575Z,101193.50
2018-09-22T03:10:41.675Z,101196.72
2018-09-22T03:13:10.847Z,101198.06
2018-09-22T03:15:40.046Z,101200.13
2018-09-22T03:18:09.204Z,101206.13
2018-09-22T03:20:38.364Z,101213.95
2018-09-22T03:23:07.677Z,101216.42
2018-09-22T03:25:36.880Z,101219.36
2018-09-22T03:28:06.070Z,101217.56
2018-09-22T03:30:35.343Z,101228.57
2018-09-22T03:33:04.505Z,101220.73
2018-09-22T03:35:33.808Z,101230.05
2018-09-22T03:38:02.997Z,101238.27
2018-09-22T03:40:32.220Z,101240.50
2018-09-22T03:43:01.724Z,101238.13
2018-09-22T03:45:30.905Z,101246.19
2018-09-22T03:48:00.141Z,101243.80
2018-09-22T03:50:29.306Z,101237.81
2018-09-22T03:52:58.712Z,101252.02
2018-09-22T03:55:27.873Z,101257.08
2018-09-22T03:57:57.053Z,101243.78
2018-09-22T04:00:26.260Z,101254.75
2018-09-22T04:02:55.445Z,101252.79
2018-09-22T04:05:24.651Z,101261.97
2018-09-22T04:07:53.844Z,101256.09
2018-09-22T04:10:23.103Z,101253.33
2018-09-22T04:12:52.317Z,101247.64
2018-09-22T04:15:21.611Z,101244.33
2018-09-22T04:17:50.788Z,101251.81
2018-09-22T04:20:19.963Z,101262.47
2018-09-22T04:22:49.196Z,101262.70
2018-09-22T04:25:18.372Z,101269.41
2018-09-22T04:27:47.614Z,101278.06
2018-09-22T04:30:16.806Z,101281.06
2018-09-22T04:32:45.972Z,101273.53
2018-09-22T04:35:15.137Z,101281.37
2018-09-22T04:37:44.280Z,101279.72
2018-09-22T04:40:13.556Z,101286.12
2018-09-22T04:42:42.718Z,101287.78
2018-09-22T04:45:11.857Z,101289.57
2018-09-22T04:47:41.007Z,101296.48
2018-09-22T04:50:10.267Z,101290.07
2018-09-22T04:52:39.460Z,101291.20
2018-09-22T04:55:08.640Z,101297.63
2018-09-22T04:57:38.902Z,101295.36
2018-09-22T05:00:08.128Z,101301.35
2018-09-22T05:02:37.300Z,101304.04
2018-09-22T05:05:06.733Z,101302.08
2018-09-22T05:07:35.873Z,101308.48
2018-09-22T05:10:05.045Z,101309.02
2018-09-22T05:12:34.268Z,101313.86
2018-09-22T05:15:03.493Z,101324.20
2018-09-22T05:17:32.680Z,101316.22
2018-09-22T05:20:01.852Z,101320.03
2018-09-22T05:22:31.010Z,101322.90
2018-09-22T05:25:00.152Z,101331.36
2018-09-22T05:27:29.351Z,101329.88
2018-09-22T05:29:59.648Z,101339.06
2018-09-22T05:32:28.785Z,101342.29
2018-09-22T05:34:57.912Z,101352.42
2018-09-22T05:37:27.101Z,101344.13
2018-09-22T05:39:56.278Z,101354.47
2018-09-22T05:42:25.439Z,101363.22
2018-09-22T05:44:54.628Z,101363.17
2018-09-22T05:47:23.737Z,101368.64
2018-09-22T05:49:52.893Z,101372.48
2018-09-22T05:52:22.032Z,101371.33
2018-09-22T05:54:51.204Z,101375.17
2018-09-22T05:57:20.324Z,101370.33
2018-09-22T05:59:49.638Z,101377.86
2018-09-22T06:02:18.787Z,101381.34
2018-09-22T06:04:47.897Z,101387.30
2018-09-22T06:07:17.042Z,101398.59
2018-09-22T06:09:46.206Z,101400.11
2018-09-22T06:12:15.450Z,101393.78
2018-09-22T06:14:44.568Z,101401.12
2018-09-22T06:17:14.116Z,101400.09
2018-09-22T06:19:43.265Z,101393.78
2018-09-22T06:22:12.412Z,101401.84
2018-09-22T06:24:41.568Z,101403.73
2018-09-22T06:27:10.679Z,101400.41
2018-09-22T06:29:39.852Z,101407.77
2018-09-22T06:32:09.642Z,101408.48
2018-09-22T06:34:39.044Z,101416.42
2018-09-22T06:37:08.241Z,101413.31
2018-09-22T06:39:37.380Z,101407.94
2018-09-22T06:42:07.573Z,101414.83
2018-09-22T06:44:36.764Z,101422.00
2018-09-22T06:47:05.972Z,101430.78
2018-09-22T06:49:35.439Z,101424.75
2018-09-22T06:52:04.651Z,101423.19
2018-09-22T06:54:33.873Z,101416.31
2018-09-22T06:57:03.065Z,101419.17
2018-09-22T06:59:32.353Z,101430.33
2018-09-22T07:02:01.558Z,101425.39
2018-09-22T07:04:31.016Z,101427.43
2018-09-22T07:07:00.158Z,101419.20
2018-09-22T07:09:29.319Z,101427.52
2018-09-22T07:11:58.585Z,101423.64
2018-09-22T07:14:27.703Z,101425.45
2018-09-22T07:16:56.933Z,101433.55
2018-09-22T07:19:26.341Z,101429.35
2018-09-22T07:22:00.887Z,101431.16
2018-09-22T07:24:30.033Z,101430.27
2018-09-22T07:26:59.179Z,101436.09
2018-09-22T07:29:28.638Z,101426.23
2018-09-22T07:31:58.857Z,101435.34
2018-09-22T07:34:28.070Z,101438.77
2018-09-22T07:36:57.268Z,101443.91
2018-09-22T07:39:26.450Z,101447.94
2018-09-22T07:41:55.696Z,101441.05
2018-09-22T07:44:24.844Z,101442.53
2018-09-22T07:46:54.089Z,101438.16
2018-09-22T07:49:23.272Z,101432.02
2018-09-22T07:51:52.413Z,101440.91
2018-09-22T07:54:21.551Z,101430.18
2018-09-22T07:56:50.847Z,101435.71
2018-09-22T07:59:20.082Z,101432.23
2018-09-22T08:01:49.533Z,101442.63
2018-09-22T08:04:18.680Z,101434.45
2018-09-22T08:06:48.133Z,101440.26
2018-09-22T08:09:17.373Z,101446.09
2018-09-22T08:11:46.940Z,101446.41
2018-09-22T08:14:16.353Z,101442.13
2018-09-22T08:16:45.509Z,101452.38
2018-09-22T08:19:14.681Z,101449.02
2018-09-22T08:21:43.875Z,101455.50
2018-09-22T08:24:13.072Z,101453.06
2018-09-22T08:26:42.349Z,101451.02
2018-09-22T08:29:11.678Z,101451.23
2018-09-22T08:31:40.867Z,101452.11
2018-09-22T08:34:10.026Z,101447.36
2018-09-22T08:36:39.259Z,101455.45
2018-09-22T08:39:10.068Z,101450.16
2018-09-22T08:41:39.249Z,101450.27
2018-09-22T08:44:08.473Z,101460.41
2018-09-22T08:46:38.055Z,101445.73
2018-09-22T08:49:07.374Z,101451.06
2018-09-22T08:51:36.797Z,101449.36
2018-09-22T08:54:06.082Z,101459.80
2018-09-22T08:56:35.309Z,101462.77
2018-09-22T08:59:04.487Z,101465.27
2018-09-22T09:01:34.785Z,101464.84
2018-09-22T09:04:03.992Z,101464.58
2018-09-22T09:06:34.231Z,101474.15
2018-09-22T09:09:03.464Z,101469.39
2018-09-22T09:11:32.671Z,101474.45
2018-09-22T09:14:01.859Z,101464.52
2018-09-22T09:16:31.024Z,101460.93
2018-09-22T09:19:00.362Z,101467.33
2018-09-22T09:21:29.502Z,101462.08
2018-09-22T09:23:58.668Z,101460.41
2018-09-22T09:26:28.280Z,101460.83
2018-09-22T09:28:57.387Z,101458.92
2018-09-22T09:31:26.534Z,101465.54
2018-09-22T09:33:55.727Z,101458.00
2018-09-22T09:36:24.927Z,101452.34
2018-09-22T09:38:57.932Z,101446.67
2018-09-22T09:41:27.060Z,101455.43
2018-09-22T09:43:56.207Z,101456.23
2018-09-22T09:46:25.510Z,101455.39
2018-09-22T09:48:54.949Z,101461.36
2018-09-22T09:51:24.223Z,101462.39
2018-09-22T09:53:53.414Z,101451.52
2018-09-22T09:56:22.552Z,101463.52
2018-09-22T09:58:51.700Z,101453.92
2018-09-22T10:01:21.161Z,101457.03
2018-09-22T10:03:50.315Z,101464.77
2018-09-22T10:06:19.473Z,101458.39
2018-09-22T10:08:48.721Z,101470.77
2018-09-22T10:11:17.928Z,101464.08
2018-09-22T10:13:47.215Z,101458.23
2018-09-22T10:16:16.459Z,101458.19
2018-09-22T10:18:45.588Z,101464.00
2018-09-22T10:21:14.737Z,101448.25
2018-09-22T10:23:43.904Z,101460.66
2018-09-22T10:26:13.073Z,101450.44
2018-09-22T10:28:48.257Z,101449.50
2018-09-22T10:31:17.894Z,101443.45
2018-09-22T10:33:47.195Z,101452.50
2018-09-22T10:36:16.392Z,101449.66
2018-09-22T10:38:45.876Z,101450.55
2018-09-22T10:41:15.077Z,101433.66
2018-09-22T10:43:44.356Z,101436.08
2018-09-22T10:46:13.624Z,101435.46
2018-09-22T10:48:42.860Z,101434.03
2018-09-22T10:51:12.188Z,101437.19
2018-09-22T10:53:41.373Z,101428.08
2018-09-22T10:56:10.637Z,101430.80
2018-09-22T10:58:39.873Z,101435.86
2018-09-22T11:01:09.128Z,101438.91
2018-09-22T11:03:38.438Z,101445.64
2018-09-22T11:06:07.749Z,101437.78
2018-09-22T11:08:36.996Z,101436.95
2018-09-22T11:11:06.258Z,101437.89
2018-09-22T11:13:36.008Z,101437.36
2018-09-22T11:16:05.231Z,101433.46
2018-09-22T11:18:34.436Z,101436.91
2018-09-22T11:21:03.616Z,101429.91
2018-09-22T11:23:32.938Z,101424.39
2018-09-22T11:26:02.250Z,101435.94
2018-09-22T11:28:31.928Z,101435.02
2018-09-22T11:31:01.097Z,101432.82
2018-09-22T11:33:30.299Z,101431.51
2018-09-22T11:35:59.558Z,101437.47
2018-09-22T11:38:28.808Z,101437.78
2018-09-22T11:40:57.968Z,101435.91
2018-09-22T11:43:28.305Z,101434.30
2018-09-22T11:45:57.689Z,101416.68
2018-09-22T11:48:26.949Z,101425.50
2018-09-22T11:50:56.193Z,101418.28
2018-09-22T11:53:25.390Z,101430.42
2018-09-22T11:55:55.672Z,101421.67
2018-09-22T11:58:25.421Z,101436.61
2018-09-22T12:00:57.792Z,101440.27
2018-09-22T12:03:27.080Z,101425.72
2018-09-22T12:06:10.995Z,101436.63
2018-09-22T12:08:40.361Z,101439.30
2018-09-22T12:11:09.617Z,101419.17
2018-09-22T12:13:47.850Z,101430.97
2018-09-22T12:16:17.156Z,101435.95
2018-09-22T12:18:46.406Z,101436.06
2018-09-22T12:21:15.639Z,101428.72
2018-09-22T12:23:45.131Z,101432.95
2018-09-22T12:26:14.440Z,101446.50
2018-09-22T12:28:46.426Z,101431.98
2018-09-22T12:31:16.045Z,101440.94
2018-09-22T12:33:45.786Z,101436.58
2018-09-22T12:36:15.190Z,101433.63
2018-09-22T12:38:44.646Z,101438.69
2018-09-22T12:41:13.919Z,101428.92
2018-09-22T12:43:43.328Z,101431.03
2018-09-22T12:46:15.983Z,101429.24
2018-09-22T12:48:45.762Z,101423.31
2018-09-22T12:57:14.797Z,101434.00
2018-09-22T12:59:44.162Z,101434.44
2018-09-22T13:02:13.974Z,101431.67
2018-09-22T13:04:43.385Z,101435.41
2018-09-22T13:07:12.787Z,101434.57
2018-09-22T13:09:41.961Z,101429.72
2018-09-22T13:12:11.117Z,101427.88
2018-09-22T13:14:42.505Z,101426.14
2018-09-22T13:17:11.864Z,101417.42
2018-09-22T13:19:41.092Z,101411.33
2018-09-22T13:22:10.345Z,101430.08
2018-09-22T13:24:39.548Z,101426.23
2018-09-22T13:27:09.038Z,101420.03
2018-09-22T13:29:38.450Z,101425.95
2018-09-22T13:32:07.730Z,101422.60
2018-09-22T13:34:36.992Z,101434.06
2018-09-22T13:37:06.823Z,101429.09
2018-09-22T13:39:36.100Z,101430.23
2018-09-22T13:42:05.388Z,101431.88
2018-09-22T13:44:34.601Z,101419.89
2018-09-22T13:47:04.041Z,101424.53
2018-09-22T13:49:33.410Z,101412.97
2018-09-22T13:52:02.659Z,101424.43
2018-09-22T13:54:32.651Z,101410.83
2018-09-22T13:57:02.403Z,101416.33
2018-09-22T13:59:32.563Z,101406.54
2018-09-22T14:02:01.999Z,101422.08
2018-09-22T14:04:31.539Z,101417.39
2018-09-22T14:07:00.859Z,101422.36
2018-09-22T14:09:30.156Z,101414.00
2018-09-22T14:11:59.441Z,101416.66
2018-09-22T14:14:47.541Z,101429.98
2018-09-22T14:17:21.652Z,101436.81
2018-09-22T14:19:52.753Z,101444.52
2018-09-22T14:22:31.462Z,101430.30
2018-09-22T14:25:01.340Z,101428.76
2018-09-22T14:27:31.230Z,101433.58
2018-09-22T14:30:01.495Z,101428.01
2018-09-22T14:32:31.049Z,101438.30
2018-09-22T14:35:00.318Z,101424.33
2018-09-22T14:37:29.506Z,101430.47
2018-09-22T14:39:59.754Z,101427.80
2018-09-22T14:42:28.999Z,101425.55
2018-09-22T14:44:58.255Z,101417.59
2018-09-22T14:47:29.518Z,101416.28
2018-09-22T14:49:58.813Z,101417.94
2018-09-22T14:52:28.184Z,101420.01
2018-09-22T14:54:58.369Z,101423.53
2018-09-22T14:57:27.601Z,101425.68
2018-09-22T14:59:56.767Z,101418.36
2018-09-22T15:02:25.993Z,101409.43
2018-09-22T15:04:55.171Z,101411.38
2018-09-22T15:07:25.388Z,101409.09
2018-09-22T15:09:54.554Z,101408.59
2018-09-22T15:12:23.742Z,101407.35
2018-09-22T15:14:53.009Z,101407.09
2018-09-22T15:17:44.057Z,101393.47
2018-09-22T15:20:24.042Z,101400.09
2018-09-22T15:22:53.292Z,101405.97
2018-09-22T15:25:22.522Z,101415.48
2018-09-22T15:27:51.790Z,101400.03
2018-09-22T15:30:21.017Z,101398.38
2018-09-22T15:32:50.266Z,101400.55
2018-09-22T15:35:19.529Z,101395.05
2018-09-22T15:37:48.768Z,101390.73
2018-09-22T15:40:17.931Z,101401.27
2018-09-22T15:42:48.200Z,101411.97
2018-09-22T15:45:17.465Z,101405.31
2018-09-22T15:47:46.687Z,101396.14
2018-09-22T15:50:17.949Z,101383.73
2018-09-22T15:52:51.327Z,101385.64
2018-09-22T15:55:20.588Z,101377.38
2018-09-22T15:57:49.901Z,101385.61
2018-09-22T16:00:19.075Z,101392.81
2018-09-22T16:02:48.285Z,101391.88
2018-09-22T16:05:17.708Z,101405.30
2018-09-22T16:07:46.950Z,101411.11
2018-09-22T16:10:16.210Z,101404.84
2018-09-22T16:12:45.422Z,101407.00
2018-09-22T16:15:14.948Z,101409.84
2018-09-22T16:17:44.211Z,101395.03
2018-09-22T16:20:13.464Z,101407.74
2018-09-22T16:22:44.741Z,101411.69
2018-09-22T16:25:13.938Z,101403.31
2018-09-22T16:27:43.182Z,101397.73
2018-09-22T16:30:12.410Z,101393.25
2018-09-22T16:32:42.599Z,101385.25
2018-09-22T16:35:12.009Z,101377.39
2018-09-22T16:37:41.182Z,101399.77
2018-09-22T16:40:10.339Z,101394.67
2018-09-22T16:42:39.588Z,101396.93
2018-09-22T16:45:08.785Z,101398.22
2018-09-22T16:47:37.969Z,101397.50
2018-09-22T16:50:07.420Z,101396.39
2018-09-22T16:52:40.117Z,101400.45
2018-09-22T16:55:09.439Z,101398.41
2018-09-22T16:57:38.626Z,101398.67
2018-09-22T17:00:08.081Z,101406.33
2018-09-22T17:02:37.282Z,101405.37
2018-09-22T17:05:06.589Z,101405.42
2018-09-22T17:07:35.843Z,101405.42
2018-09-22T17:10:05.320Z,101402.16
2018-09-22T17:12:34.754Z,101395.28
2018-09-22T17:15:04.389Z,101397.98
2018-09-22T17:17:33.692Z,101414.67
2018-09-22T17:20:02.909Z,101406.14
2018-09-22T17:22:32.087Z,101408.61
2018-09-22T17:25:01.460Z,101416.87
2018-09-22T17:27:30.861Z,101410.64
2018-09-22T17:29:59.949Z,101412.47
2018-09-22T17:32:29.242Z,101409.16
2018-09-22T17:34:58.515Z,101412.64
2018-09-22T17:37:27.726Z,101414.67
2018-09-22T17:39:56.973Z,101412.92
2018-09-22T17:42:26.114Z,101396.81
2018-09-22T17:44:55.369Z,101387.84
2018-09-22T17:47:24.639Z,101388.92
2018-09-22T17:49:53.849Z,101388.05
2018-09-22T17:52:23.017Z,101383.50
2018-09-22T17:54:52.199Z,101384.34
2018-09-22T17:57:21.380Z,101390.89
2018-09-22T17:59:50.611Z,101396.72
2018-09-22T18:02:19.781Z,101406.03
2018-09-22T18:04:48.947Z,101415.63
2018-09-22T18:07:18.221Z,101415.40
2018-09-22T18:09:48.001Z,101425.74
2018-09-22T18:12:17.215Z,101428.67
2018-09-22T18:14:46.392Z,101432.06
2018-09-22T18:17:15.988Z,101429.20
2018-09-22T18:21:43.923Z,101427.25
2018-09-22T18:24:13.557Z,101427.25
2018-09-22T18:26:42.772Z,101435.27
2018-09-22T18:29:12.050Z,101437.46
2018-09-22T18:31:41.276Z,101437.67
2018-09-22T18:34:10.438Z,101453.20
2018-09-22T18:36:39.581Z,101461.69
2018-09-22T18:39:09.115Z,101467.54
2018-09-22T18:41:38.583Z,101470.70
2018-09-22T18:44:07.807Z,101470.81
2018-09-22T18:46:37.787Z,101477.94
2018-09-22T18:49:13.716Z,101474.66
2018-09-22T18:51:44.161Z,101484.52
2018-09-22T18:54:13.513Z,101479.66
2018-09-22T18:56:42.829Z,101481.01
2018-09-22T18:59:12.027Z,101472.92
2018-09-22T19:01:41.207Z,101482.93
2018-09-22T19:04:10.420Z,101483.23
2018-09-22T19:06:39.756Z,101490.27
2018-09-22T19:09:09.729Z,101487.10
2018-09-22T19:11:38.984Z,101492.64
2018-09-22T19:14:16.022Z,101489.47
2018-09-22T19:16:56.032Z,101493.51
2018-09-22T19:19:35.509Z,101483.05
2018-09-22T19:22:07.656Z,101481.61
2018-09-22T19:24:44.276Z,101479.20
2018-09-22T19:27:17.161Z,101475.95
2018-09-22T19:29:52.219Z,101478.62
2018-09-22T19:32:26.128Z,101477.36
2018-09-22T19:34:58.920Z,101480.92
2018-09-22T19:37:32.923Z,101482.91
2018-09-22T19:40:08.269Z,101485.51
2018-09-22T19:42:42.980Z,101476.36
2018-09-22T19:45:16.457Z,101481.17
2018-09-22T19:47:54.232Z,101488.97
2018-09-22T19:50:27.900Z,101483.14
2018-09-22T19:52:57.230Z,101478.88
2018-09-22T19:55:26.436Z,101481.97
2018-09-22T19:57:55.582Z,101471.69
2018-09-22T20:00:24.820Z,101473.84
2018-09-22T20:02:54.005Z,101480.88
2018-09-22T20:05:23.157Z,101478.41
2018-09-22T20:07:52.326Z,101480.17
2018-09-22T20:10:21.480Z,101482.05
2018-09-22T20:12:50.765Z,101481.74
2018-09-22T20:20:17.520Z,101479.02
2018-09-22T20:22:46.857Z,101475.11
2018-09-22T20:25:16.060Z,101483.51
2018-09-22T20:27:45.238Z,101471.41
2018-09-22T20:30:14.475Z,101468.98
2018-09-22T20:32:43.647Z,101470.36
2018-09-22T20:35:12.864Z,101469.96
2018-09-22T20:37:42.065Z,101467.49
2018-09-22T20:40:11.324Z,101466.06
2018-09-22T20:42:40.558Z,101467.31
2018-09-22T20:45:10.017Z,101465.66
2018-09-22T20:47:39.365Z,101464.53
2018-09-22T20:50:08.725Z,101471.98
2018-09-22T20:52:38.032Z,101467.94
2018-09-22T20:55:07.232Z,101469.28
2018-09-22T20:57:36.542Z,101470.63
2018-09-22T21:00:06.976Z,101464.53
2018-09-22T21:02:36.446Z,101470.63
2018-09-22T21:05:05.734Z,101457.09
2018-09-22T21:07:35.266Z,101457.91
2018-09-22T21:10:04.598Z,101467.94
2018-09-22T21:12:33.993Z,101465.25
2018-09-22T21:15:03.135Z,101468.79
2018-09-22T21:17:32.380Z,101463.54
2018-09-22T21:20:01.563Z,101462.60
2018-09-22T21:22:30.755Z,101463.63
2018-09-22T21:25:00.892Z,101459.10
2018-09-22T21:27:30.024Z,101450.59
2018-09-22T21:29:59.146Z,101455.16
2018-09-22T21:32:28.419Z,101453.63
2018-09-22T21:34:57.612Z,101454.97
2018-09-22T21:37:26.744Z,101456.32
2018-09-22T21:39:55.959Z,101447.22
2018-09-22T21:42:25.119Z,101442.88
2018-09-22T21:44:54.285Z,101445.97
2018-09-22T21:47:23.499Z,101448.98
2018-09-22T21:49:52.668Z,101447.13
2018-09-22T21:52:21.926Z,101448.66
2018-09-22T21:54:51.277Z,101439.56
2018-09-22T21:57:20.341Z,101448.38
2018-09-22T21:59:49.577Z,101449.41
2018-09-22T22:02:18.728Z,101454.79
2018-09-22T22:04:48.028Z,101446.10
2018-09-22T22:07:17.732Z,101449.54
2018-09-22T22:09:46.864Z,101447.88
2018-09-22T22:12:16.001Z,101444.45
2018-09-22T22:14:45.123Z,101438.79
2018-09-22T22:17:14.512Z,101435.16
2018-09-22T22:19:43.653Z,101437.04
2018-09-22T22:22:12.807Z,101437.56
2018-09-22T22:24:42.091Z,101435.19
2018-09-22T22:27:11.279Z,101438.00
2018-09-22T22:29:40.626Z,101447.63
2018-09-22T22:32:09.783Z,101446.31
2018-09-22T22:34:38.904Z,101438.16
2018-09-22T22:37:08.165Z,101438.88
2018-09-22T22:39:37.338Z,101438.99
2018-09-22T22:42:06.529Z,101438.68
2018-09-22T22:44:35.706Z,101435.68
2018-09-22T22:47:04.840Z,101430.74
2018-09-22T22:49:34.073Z,101438.48
2018-09-22T22:52:03.217Z,101437.58
2018-09-22T22:54:32.312Z,101436.64
2018-09-22T22:57:01.425Z,101435.01
2018-09-22T22:59:30.984Z,101433.04
2018-09-22T23:02:00.149Z,101433.25
2018-09-22T23:04:29.277Z,101428.70
2018-09-22T23:06:58.452Z,101430.78
2018-09-22T23:09:27.701Z,101432.44
2018-09-22T23:11:56.864Z,101430.98
2018-09-22T23:14:26.018Z,101424.55
2018-09-22T23:16:55.164Z,101425.70
2018-09-22T23:19:24.552Z,101431.17
2018-09-22T23:21:53.714Z,101422.05
2018-09-22T23:24:22.886Z,101418.77
2018-09-22T23:26:52.203Z,101419.17
2018-09-22T23:29:21.370Z,101417.55
2018-09-22T23:31:50.632Z,101411.33
2018-09-22T23:34:19.949Z,101423.20
2018-09-22T23:36:49.850Z,101424.55
2018-09-22T23:39:19.004Z,101421.58
2018-09-22T23:41:48.265Z,101415.36
2018-09-22T23:44:17.459Z,101414.23
2018-09-22T23:46:46.604Z,101409.89
2018-09-22T23:49:15.793Z,101403.39
2018-09-22T23:51:44.952Z,101406.42
2018-09-22T23:54:14.101Z,101405.79
2018-09-22T23:56:43.329Z,101396.39
2018-09-22T23:59:12.456Z,101412.19
